Lansing, Michigan
Current Conditions -  °F | °C
As of 6:53 PM on Sunday 25 Jan 2015 (Local Time) from KLAN Reporting Station
Clear Clear  
Wind Chill:   Ceiling: Unl
Heat Index: 20°   Visibility: 10mi
Dew Point: 12°   Wind: 10mph
Humidity: 71%   Direction: 40°NE
Pressure: 29.97"   Gusts: NA
Location:  42.73°N, 84.55°W
Report Text: KLAN 252353Z 04009KT 10SM CLR M07/M11 A2997 RMK AO2 SLP161 T10671111 11044 21067 53018 $
Loading
Personal Weather Stations






























Interactive Weather Map New forecast layout! Learn more

10-Day Weather Forecast

Advertisements
Track Severe Weather on mobile